Raton, NM

8:00 AM MDT on August 29, 2014 (GMT -0600)
Raton Municipal-Crews | Change Station
CLOSE
Current Station
Airport
Location: Raton,
Elevation: 6352 ft
Nearby Weather Stations

Elev 6352 ft 36.74 °N, 104.50 °W | Updated 7 minutes ago

Clear
Clear
51 °F
Feels Like 51 °F
N
4
Wind Variable Wind from NE

Today
High -- | Low -- °F
--% Chance of Precip.
Yesterday
High -- | Low -- °F
Precip. -- in
6:27 AM 7:31 PM
Waxing Crescent, 14% visible
Pressure 30.02 in
Visibility 10.0 miles
Clouds Clear
Dew Point 42 °F
Humidity 71%
Rainfall 0.00 in
Snow Depth Not available.
UV 1 out of 12
Pollen 10.10 out of 12
Air Quality Not available.
Flu Activity Not available.
METAR KRTN 291353Z AUTO 04003KT 10SM CLR 11/06 A3021 RMK AO2 SLP166 T01060056

More Conditions Fewer Conditions

Pressure 30.02 in
Visibility 10.0 miles
Clouds Clear
Dew Point 42 °F
Humidity 71%
Rainfall 0.00 in
Snow Depth Not available.
UV 1 out of 12
Pollen 10.10 out of 12
Air Quality Not available.
Flu Activity Not available.
METAR KRTN 291353Z AUTO 04003KT 10SM CLR 11/06 A3021 RMK AO2 SLP166 T01060056

More Conditions Fewer Conditions

10-Day Weather Forecast

Almanac

Astronomy

Aug. 29, 2014 Rise Set
Actual Time 6:27 AM MDT 7:31 PM MDT
Civil Twilight 6:00 AM MDT 7:57 PM MDT
Nautical Twilight 5:28 AM MDT 8:29 PM MDT
Astronomical Twilight 4:55 AM MDT 9:02 PM MDT
Moon 10:12 AM MDT 9:37 PM MDT
Length of Visible Light 13h 57m
Length of Day
13h 04m
Tomorrow will be 2m 14s shorter.
Waxing Crescent, 14% of the Moon is Illuminated
Today
Waxing Crescent
Sep 2
First Quarter
Sep 8
Full
Sep 15
Last Quarter
Sep 24
New

Today's Extremes

State Highs State Lows

Community

WunderPhotos

Upload Photos

1,748,240 photos uploaded!

Nearby

Snow Depth

Station Depth Elevation
North Costilla 1 in 10600 ft
Red River Pass #2 0 in 9850 ft
Tolby 1 in 10180 ft
Gallegos Peak 1 in 9800 ft
Hopewell 0 in 10000 ft

Earthquake Activity

City Distance Mag. Time & Date
No recent earthquake activity has been reported nearby.
Minimum magnitude displayed is 2.5.

Coastal Water Temperatures

Place Temperature
No Stations Reporting

Nearby Weather Stations